createdAt,value
2023-07-09T00:00:06.697Z,99.99
2023-07-09T00:02:39.660Z,99.99
2023-07-09T00:05:16.889Z,99.99
2023-07-09T00:07:48.198Z,99.99
2023-07-09T00:10:21.290Z,99.99
2023-07-09T00:12:51.743Z,99.99
2023-07-09T00:15:21.444Z,99.99
2023-07-09T00:17:51.255Z,99.99
2023-07-09T00:20:22.109Z,99.99
2023-07-09T00:22:54.511Z,99.99
2023-07-09T00:25:26.405Z,99.99
2023-07-09T00:27:56.716Z,99.99
2023-07-09T00:30:26.948Z,99.99
2023-07-09T00:32:57.210Z,99.99
2023-07-09T00:35:27.690Z,99.99
2023-07-09T00:37:57.786Z,99.99
2023-07-09T00:40:28.072Z,99.99
2023-07-09T00:42:59.433Z,99.99
2023-07-09T00:45:30.527Z,99.99
2023-07-09T00:48:03.274Z,99.99
2023-07-09T00:50:47.784Z,99.99
2023-07-09T00:53:28.291Z,99.99
2023-07-09T00:56:12.038Z,99.99
2023-07-09T00:58:44.763Z,99.99
2023-07-09T01:01:20.446Z,99.99
2023-07-09T01:03:55.116Z,99.99
2023-07-09T01:06:34.575Z,99.99
2023-07-09T01:09:08.873Z,99.99
2023-07-09T01:11:40.413Z,99.99
2023-07-09T01:14:13.146Z,99.99
2023-07-09T01:16:59.921Z,99.67
2023-07-09T01:19:45.286Z,99.99
2023-07-09T01:22:18.146Z,99.49
2023-07-09T01:24:55.884Z,99.60
2023-07-09T01:27:35.492Z,99.82
2023-07-09T01:30:15.786Z,99.20
2023-07-09T01:32:48.243Z,99.51
2023-07-09T01:35:22.065Z,98.88
2023-07-09T01:37:52.830Z,99.16
2023-07-09T01:40:31.558Z,98.97
2023-07-09T01:43:08.546Z,99.25
2023-07-09T01:45:39.649Z,99.24
2023-07-09T01:48:17.924Z,99.06
2023-07-09T01:50:49.194Z,99.17
2023-07-09T01:53:25.718Z,99.28
2023-07-09T01:55:56.880Z,98.93
2023-07-09T01:58:27.249Z,99.30
2023-07-09T02:00:57.439Z,99.43
2023-07-09T02:03:27.531Z,99.02
2023-07-09T02:06:00.072Z,99.26
2023-07-09T02:08:30.198Z,99.76
2023-07-09T02:11:00.396Z,99.47
2023-07-09T02:13:30.567Z,99.42
2023-07-09T02:16:01.491Z,99.51
2023-07-09T02:18:32.622Z,99.67
2023-07-09T02:21:04.132Z,99.99
2023-07-09T02:23:33.806Z,99.99
2023-07-09T02:26:04.003Z,99.99
2023-07-09T02:28:34.281Z,99.99
2023-07-09T02:31:04.468Z,99.99
2023-07-09T02:33:35.327Z,99.99
2023-07-09T02:36:05.827Z,99.99
2023-07-09T02:38:36.305Z,99.99
2023-07-09T02:41:10.085Z,99.99
2023-07-09T02:43:40.435Z,99.99
2023-07-09T02:46:10.370Z,99.99
2023-07-09T02:48:40.399Z,99.99
2023-07-09T02:51:10.560Z,99.99
2023-07-09T02:53:40.724Z,99.99
2023-07-09T02:56:10.714Z,99.99
2023-07-09T02:58:40.795Z,99.99
2023-07-09T03:01:10.769Z,99.99
2023-07-09T03:03:41.150Z,99.99
2023-07-09T03:06:11.025Z,99.99
2023-07-09T03:08:41.006Z,99.99
2023-07-09T03:11:13.726Z,99.99
2023-07-09T03:13:44.376Z,99.99
2023-07-09T03:16:14.611Z,99.99
2023-07-09T03:18:44.681Z,99.99
2023-07-09T03:21:14.817Z,99.99
2023-07-09T03:23:46.179Z,99.99
2023-07-09T03:26:17.356Z,99.99
2023-07-09T03:28:47.766Z,99.99
2023-07-09T03:31:18.440Z,99.99
2023-07-09T03:33:52.528Z,99.99
2023-07-09T03:36:23.161Z,99.99
2023-07-09T03:38:52.813Z,99.99
2023-07-09T03:41:22.631Z,99.99
2023-07-09T03:43:55.944Z,99.99
2023-07-09T03:46:26.227Z,99.99
2023-07-09T03:48:56.534Z,99.99
2023-07-09T03:51:26.744Z,99.99
2023-07-09T03:53:56.928Z,99.99
2023-07-09T03:56:27.185Z,99.99
2023-07-09T03:58:57.321Z,99.99
2023-07-09T04:01:27.481Z,99.99
2023-07-09T04:03:57.676Z,99.99
2023-07-09T04:06:28.467Z,99.99
2023-07-09T04:09:17.692Z,99.99
2023-07-09T04:11:47.840Z,99.99
2023-07-09T04:14:17.804Z,99.99
2023-07-09T04:16:48.123Z,99.99
2023-07-09T04:19:17.774Z,99.99
2023-07-09T04:21:47.025Z,99.99
2023-07-09T04:24:20.216Z,99.99
2023-07-09T04:26:50.720Z,99.99
2023-07-09T04:29:20.471Z,99.99
2023-07-09T04:31:50.302Z,99.99
2023-07-09T04:34:20.436Z,99.99
2023-07-09T04:36:50.605Z,99.99
2023-07-09T04:39:20.555Z,99.99
2023-07-09T04:41:50.737Z,99.99
2023-07-09T04:44:20.883Z,99.99
2023-07-09T04:46:51.552Z,99.99
2023-07-09T04:49:21.661Z,99.99
2023-07-09T04:51:51.822Z,99.99
2023-07-09T04:54:24.773Z,99.99
2023-07-09T04:56:55.175Z,99.99
2023-07-09T04:59:26.086Z,99.99
2023-07-09T05:01:56.395Z,99.99
2023-07-09T05:04:26.626Z,99.99
2023-07-09T05:06:56.854Z,99.99
2023-07-09T05:09:28.444Z,99.99
2023-07-09T05:11:58.547Z,99.99
2023-07-09T05:14:30.187Z,99.99
2023-07-09T05:17:00.338Z,99.99
2023-07-09T05:19:30.813Z,99.99
2023-07-09T05:22:01.040Z,99.99
2023-07-09T05:24:32.404Z,99.99
2023-07-09T05:27:02.545Z,99.99
2023-07-09T05:29:32.845Z,99.99
2023-07-09T05:32:02.788Z,99.99
2023-07-09T05:34:32.698Z,99.99
2023-07-09T05:37:02.542Z,99.99
2023-07-09T05:39:32.442Z,99.99
2023-07-09T05:42:02.747Z,99.99
2023-07-09T05:44:32.908Z,99.99
2023-07-09T05:47:03.064Z,99.99
2023-07-09T05:49:33.959Z,99.99
2023-07-09T05:52:05.079Z,99.99
2023-07-09T05:54:35.094Z,99.99
2023-07-09T05:57:05.240Z,99.99
2023-07-09T05:59:35.319Z,99.99
2023-07-09T06:02:06.506Z,99.99
2023-07-09T06:04:36.925Z,99.99
2023-07-09T06:07:07.170Z,99.99
2023-07-09T06:09:37.993Z,99.99
2023-07-09T06:12:08.985Z,99.99
2023-07-09T06:14:39.118Z,99.99
2023-07-09T06:17:10.343Z,99.99
2023-07-09T06:19:41.488Z,99.99
2023-07-09T06:22:11.649Z,99.99
2023-07-09T06:24:41.760Z,99.99
2023-07-09T06:27:12.515Z,99.99
2023-07-09T06:29:42.710Z,99.99
2023-07-09T06:32:12.565Z,99.99
2023-07-09T06:34:42.617Z,99.99
2023-07-09T06:37:12.634Z,99.99
2023-07-09T06:39:42.841Z,99.99
2023-07-09T06:42:12.727Z,99.99
2023-07-09T06:45:14.675Z,99.99
2023-07-09T06:47:44.846Z,99.99
2023-07-09T06:50:15.717Z,99.99
2023-07-09T06:52:45.956Z,99.99
2023-07-09T06:55:16.359Z,99.99
2023-07-09T06:57:46.543Z,99.99
2023-07-09T07:00:17.670Z,99.99
2023-07-09T07:02:47.883Z,99.99
2023-07-09T07:05:18.013Z,99.99
2023-07-09T07:07:48.212Z,99.99
2023-07-09T07:10:18.441Z,99.99
2023-07-09T07:12:50.796Z,99.99
2023-07-09T07:15:21.519Z,99.99
2023-07-09T07:17:52.171Z,99.99
2023-07-09T07:20:23.746Z,99.99
2023-07-09T07:22:53.891Z,99.99
2023-07-09T07:25:24.134Z,99.99
2023-07-09T07:27:54.391Z,99.99
2023-07-09T07:30:25.860Z,99.99
2023-07-09T07:32:56.541Z,99.99
2023-07-09T07:35:26.777Z,99.99
2023-07-09T07:37:56.902Z,99.99
2023-07-09T07:40:27.712Z,99.99
2023-07-09T07:42:58.003Z,99.99
2023-07-09T07:45:28.208Z,99.99
2023-07-09T07:47:58.379Z,99.99
2023-07-09T07:50:28.551Z,99.99
2023-07-09T07:52:58.659Z,99.99
2023-07-09T07:55:28.829Z,99.99
2023-07-09T07:57:59.344Z,99.99
2023-07-09T08:00:29.656Z,99.99
2023-07-09T08:02:59.721Z,99.99
2023-07-09T08:05:29.904Z,99.99
2023-07-09T08:08:00.024Z,99.99
2023-07-09T08:10:29.892Z,99.99
2023-07-09T08:13:00.007Z,99.99
2023-07-09T08:15:30.891Z,99.99
2023-07-09T08:18:01.217Z,99.99
2023-07-09T08:20:31.730Z,99.99
2023-07-09T08:23:02.083Z,99.99
2023-07-09T08:26:02.550Z,99.99
2023-07-09T08:28:34.180Z,99.99
2023-07-09T08:31:04.918Z,99.99
2023-07-09T08:33:36.070Z,99.99
2023-07-09T08:36:06.582Z,99.99
2023-07-09T08:38:36.783Z,99.99
2023-07-09T08:41:11.336Z,99.99
2023-07-09T08:44:23.338Z,99.99
2023-07-09T08:47:45.750Z,99.99
2023-07-09T08:50:32.073Z,99.99
2023-07-09T08:53:02.785Z,99.99
2023-07-09T08:55:42.437Z,99.99
2023-07-09T08:58:29.065Z,99.99
2023-07-09T09:01:02.337Z,99.99
2023-07-09T09:03:52.980Z,99.99
2023-07-09T09:06:33.898Z,99.99
2023-07-09T09:09:51.461Z,99.99
2023-07-09T09:12:35.183Z,99.99
2023-07-09T09:15:26.204Z,99.99
2023-07-09T09:18:02.722Z,99.99
2023-07-09T09:20:33.616Z,99.99
2023-07-09T09:23:09.938Z,99.99
2023-07-09T09:25:44.603Z,99.99
2023-07-09T09:28:16.173Z,99.99
2023-07-09T09:30:46.346Z,99.99
2023-07-09T09:33:20.528Z,99.99
2023-07-09T09:35:50.981Z,99.99
2023-07-09T09:38:24.290Z,99.99
2023-07-09T09:41:03.867Z,99.99
2023-07-09T09:43:37.001Z,99.99
2023-07-09T09:46:09.851Z,99.99
2023-07-09T09:48:40.863Z,99.99
2023-07-09T09:51:14.236Z,99.99
2023-07-09T09:53:52.256Z,99.99
2023-07-09T09:56:36.603Z,99.99
2023-07-09T09:59:08.119Z,99.99
2023-07-09T10:01:39.663Z,99.99
2023-07-09T10:04:22.056Z,99.99
2023-07-09T10:06:59.564Z,99.99
2023-07-09T10:09:50.257Z,99.99
2023-07-09T10:12:33.878Z,99.99
2023-07-09T10:15:12.151Z,99.99
2023-07-09T10:17:57.678Z,99.99
2023-07-09T10:20:39.061Z,99.99
2023-07-09T10:23:18.373Z,99.99
2023-07-09T10:25:57.988Z,99.99
2023-07-09T10:28:55.776Z,99.99
2023-07-09T10:31:55.135Z,99.99
2023-07-09T10:34:50.155Z,99.99
2023-07-09T10:37:45.168Z,99.99
2023-07-09T10:40:19.843Z,99.99
2023-07-09T10:43:00.745Z,99.99
2023-07-09T10:45:45.933Z,99.99
2023-07-09T10:48:21.089Z,99.99
2023-07-09T10:50:56.923Z,99.99
2023-07-09T10:53:45.114Z,99.99
2023-07-09T10:56:23.617Z,99.99
2023-07-09T10:59:03.587Z,99.99
2023-07-09T11:01:48.361Z,99.99
2023-07-09T11:04:54.816Z,99.99
2023-07-09T11:07:47.785Z,99.99
2023-07-09T11:10:26.232Z,99.99
2023-07-09T11:13:14.845Z,99.99
2023-07-09T11:15:50.726Z,99.99
2023-07-09T11:18:33.762Z,99.99
2023-07-09T11:21:08.848Z,99.99
2023-07-09T11:24:01.999Z,99.99
2023-07-09T11:26:37.463Z,99.99
2023-07-09T11:29:10.477Z,99.99
2023-07-09T11:31:43.125Z,99.99
2023-07-09T11:34:16.019Z,99.99
2023-07-09T11:37:04.713Z,99.99
2023-07-09T11:39:47.844Z,99.99
2023-07-09T11:42:27.102Z,99.99
2023-07-09T11:45:14.805Z,99.99
2023-07-09T11:48:27.531Z,99.99
2023-07-09T11:51:00.126Z,99.99
2023-07-09T11:53:50.334Z,99.99
2023-07-09T11:56:26.275Z,99.99
2023-07-09T11:58:59.109Z,99.99
2023-07-09T12:01:35.062Z,99.99
2023-07-09T12:04:07.073Z,99.99
2023-07-09T12:06:41.195Z,99.99
2023-07-09T12:09:19.377Z,99.99
2023-07-09T12:11:54.105Z,99.99
2023-07-09T12:14:26.510Z,99.99
2023-07-09T12:16:57.281Z,99.99
2023-07-09T12:19:31.760Z,99.99
2023-07-09T12:22:02.585Z,99.99
2023-07-09T12:24:39.886Z,99.99
2023-07-09T12:27:28.753Z,99.99
2023-07-09T12:30:00.566Z,99.99
2023-07-09T12:32:30.848Z,99.99
2023-07-09T12:35:01.018Z,99.99
2023-07-09T12:37:34.532Z,99.99
2023-07-09T12:40:05.064Z,99.99
2023-07-09T12:42:38.257Z,99.99
2023-07-09T12:45:16.059Z,99.99
2023-07-09T12:47:47.675Z,99.99
2023-07-09T12:50:40.652Z,99.99
2023-07-09T12:53:20.005Z,99.99
2023-07-09T12:55:52.697Z,99.99
2023-07-09T12:58:34.643Z,99.99
2023-07-09T13:01:10.525Z,99.99
2023-07-09T13:03:41.021Z,99.99
2023-07-09T13:06:33.070Z,99.99
2023-07-09T13:09:03.860Z,99.99
2023-07-09T13:11:39.764Z,99.99
2023-07-09T13:14:21.072Z,99.99
2023-07-09T13:16:52.392Z,99.99
2023-07-09T13:19:22.675Z,99.99
2023-07-09T13:21:55.699Z,99.99
2023-07-09T13:24:28.455Z,99.99
2023-07-09T13:27:01.892Z,99.99
2023-07-09T13:29:36.482Z,99.99
2023-07-09T13:32:14.253Z,99.99
2023-07-09T13:34:45.400Z,99.99
2023-07-09T13:37:17.771Z,99.99
2023-07-09T13:39:48.025Z,99.99
2023-07-09T13:42:20.411Z,99.99
2023-07-09T13:44:51.577Z,99.99
2023-07-09T13:47:22.113Z,99.99
2023-07-09T13:49:51.781Z,99.99
2023-07-09T13:52:25.638Z,99.99
2023-07-09T13:54:57.952Z,99.77
2023-07-09T13:57:28.084Z,99.68
2023-07-09T13:59:59.522Z,99.99
2023-07-09T14:02:34.682Z,99.99
2023-07-09T14:05:07.501Z,99.99
2023-07-09T14:07:40.112Z,99.99
2023-07-09T14:10:19.536Z,99.79
2023-07-09T14:12:50.503Z,99.75
2023-07-09T14:15:23.257Z,99.90
2023-07-09T14:17:54.057Z,99.44
2023-07-09T14:20:24.584Z,98.91
2023-07-09T14:22:54.216Z,97.84
2023-07-09T14:25:25.375Z,98.09
2023-07-09T14:27:56.908Z,97.94
2023-07-09T14:30:29.835Z,98.62
2023-07-09T14:33:00.525Z,97.74
2023-07-09T14:35:31.409Z,97.91
2023-07-09T14:38:02.375Z,97.33
2023-07-09T14:40:32.526Z,96.98
2023-07-09T14:43:04.911Z,97.52
2023-07-09T14:45:35.100Z,96.49
2023-07-09T14:48:11.064Z,96.25
2023-07-09T14:50:42.285Z,95.52
2023-07-09T14:53:38.418Z,95.63
2023-07-09T14:56:08.531Z,95.48
2023-07-09T14:58:38.669Z,95.35
2023-07-09T15:01:14.696Z,94.54
2023-07-09T15:03:46.588Z,94.86
2023-07-09T15:06:16.736Z,94.60
2023-07-09T15:08:46.853Z,94.65
2023-07-09T15:11:17.238Z,94.00
2023-07-09T15:13:46.949Z,93.68
2023-07-09T15:16:16.992Z,93.59
2023-07-09T15:18:47.543Z,93.00
2023-07-09T15:21:18.328Z,93.23
2023-07-09T15:23:49.687Z,92.57
2023-07-09T15:26:20.115Z,91.71
2023-07-09T15:28:52.484Z,91.78
2023-07-09T15:31:22.597Z,92.21
2023-07-09T15:33:53.083Z,92.00
2023-07-09T15:36:23.179Z,91.05
2023-07-09T15:38:53.298Z,91.33
2023-07-09T15:41:23.411Z,91.17
2023-07-09T15:43:53.532Z,90.79
2023-07-09T15:46:25.393Z,91.16
2023-07-09T15:48:57.923Z,90.49
2023-07-09T15:51:28.101Z,90.79
2023-07-09T15:53:58.012Z,92.22
2023-07-09T15:56:32.260Z,90.89
2023-07-09T15:59:03.510Z,92.26
2023-07-09T16:01:33.671Z,90.08
2023-07-09T16:04:10.717Z,93.11
2023-07-09T16:06:42.065Z,92.56
2023-07-09T16:09:14.035Z,91.38
2023-07-09T16:11:55.126Z,89.86
2023-07-09T16:14:30.830Z,92.20
2023-07-09T16:17:03.288Z,89.78
2023-07-09T16:19:34.019Z,88.18
2023-07-09T16:22:07.092Z,89.50
2023-07-09T16:24:41.136Z,89.36
2023-07-09T16:27:17.728Z,87.89
2023-07-09T16:29:47.855Z,89.38
2023-07-09T16:32:17.868Z,88.38
2023-07-09T16:34:47.949Z,87.93
2023-07-09T16:37:24.498Z,87.84
2023-07-09T16:39:54.676Z,87.38
2023-07-09T16:42:24.891Z,88.08
2023-07-09T16:44:54.628Z,89.69
2023-07-09T16:47:25.354Z,89.70
2023-07-09T16:49:55.486Z,89.30
2023-07-09T16:52:28.419Z,88.55
2023-07-09T16:55:00.301Z,90.05
2023-07-09T16:57:34.002Z,89.99
2023-07-09T17:00:25.491Z,89.79
2023-07-09T17:02:56.976Z,86.68
2023-07-09T17:05:29.268Z,88.69
2023-07-09T17:08:00.512Z,87.32
2023-07-09T17:10:30.688Z,81.55
2023-07-09T17:13:02.699Z,81.05
2023-07-09T17:15:35.403Z,85.71
2023-07-09T17:18:25.687Z,80.01
2023-07-09T17:20:58.096Z,77.62
2023-07-09T17:23:31.551Z,79.46
2023-07-09T17:26:02.325Z,77.07
2023-07-09T17:28:33.967Z,74.25
2023-07-09T17:31:04.573Z,71.72
2023-07-09T17:33:34.841Z,71.29
2023-07-09T17:36:04.881Z,74.16
2023-07-09T17:38:39.802Z,72.25
2023-07-09T17:41:11.679Z,71.98
2023-07-09T17:43:43.688Z,71.28
2023-07-09T17:46:15.621Z,71.16
2023-07-09T17:48:45.780Z,72.35
2023-07-09T17:51:15.770Z,74.45
2023-07-09T17:53:45.632Z,78.06
2023-07-09T17:56:22.880Z,81.66
2023-07-09T17:58:53.296Z,82.15
2023-07-09T18:01:23.867Z,85.61
2023-07-09T18:03:54.133Z,85.19
2023-07-09T18:06:24.378Z,85.83
2023-07-09T18:08:54.520Z,85.98
2023-07-09T18:11:29.786Z,85.98
2023-07-09T18:14:02.548Z,86.27
2023-07-09T18:16:33.191Z,87.21
2023-07-09T18:19:06.100Z,87.37
2023-07-09T18:21:36.304Z,86.63
2023-07-09T18:24:06.729Z,87.05
2023-07-09T18:26:36.864Z,87.20
2023-07-09T18:29:11.081Z,86.43
2023-07-09T18:31:43.211Z,86.80
2023-07-09T18:34:13.843Z,85.17
2023-07-09T18:36:44.578Z,86.40
2023-07-09T18:39:14.782Z,86.43
2023-07-09T18:41:44.803Z,87.46
2023-07-09T18:44:19.438Z,88.25
2023-07-09T18:46:50.555Z,88.13
2023-07-09T18:49:20.692Z,88.60
2023-07-09T18:51:51.143Z,89.09
2023-07-09T18:54:23.799Z,88.96
2023-07-09T18:56:54.801Z,89.81
2023-07-09T18:59:25.068Z,89.31
2023-07-09T19:01:54.753Z,88.91
2023-07-09T19:04:29.904Z,89.01
2023-07-09T19:07:01.278Z,89.23
2023-07-09T19:09:32.199Z,88.51
2023-07-09T19:12:02.359Z,88.72
2023-07-09T19:14:41.321Z,88.72
2023-07-09T19:17:17.533Z,89.08
2023-07-09T19:19:47.817Z,89.10
2023-07-09T19:22:17.468Z,89.41
2023-07-09T19:24:47.691Z,89.06
2023-07-09T19:27:17.885Z,89.69
2023-07-09T19:29:51.635Z,89.63
2023-07-09T19:32:29.312Z,90.01
2023-07-09T19:34:59.657Z,90.10
2023-07-09T19:37:31.447Z,90.40
2023-07-09T19:40:01.552Z,90.43
2023-07-09T19:42:31.928Z,90.69
2023-07-09T19:45:02.127Z,90.60
2023-07-09T19:47:36.582Z,90.84
2023-07-09T19:50:40.192Z,91.01
2023-07-09T19:53:30.052Z,91.09
2023-07-09T19:56:00.134Z,91.38
2023-07-09T19:58:30.381Z,91.55
2023-07-09T20:01:02.829Z,91.73
2023-07-09T20:03:35.095Z,91.86
2023-07-09T20:06:05.549Z,92.13
2023-07-09T20:08:35.986Z,92.28
2023-07-09T20:11:07.702Z,92.40
2023-07-09T20:13:38.366Z,92.43
2023-07-09T20:16:16.363Z,92.47
2023-07-09T20:18:46.851Z,92.63
2023-07-09T20:21:23.358Z,92.71
2023-07-09T20:23:53.603Z,92.75
2023-07-09T20:26:23.485Z,93.10
2023-07-09T20:28:53.599Z,93.33
2023-07-09T20:31:26.800Z,93.57
2023-07-09T20:34:18.164Z,93.84
2023-07-09T20:36:54.006Z,94.18
2023-07-09T20:39:27.256Z,94.99
2023-07-09T20:41:57.469Z,95.44
2023-07-09T20:44:34.216Z,95.59
2023-07-09T20:47:05.847Z,95.82
2023-07-09T20:49:38.686Z,96.15
2023-07-09T20:52:12.680Z,96.48
2023-07-09T20:54:44.976Z,96.56
2023-07-09T20:57:22.544Z,96.89
2023-07-09T20:59:53.795Z,96.89
2023-07-09T21:02:27.130Z,97.16
2023-07-09T21:04:57.969Z,97.16
2023-07-09T21:07:28.442Z,97.26
2023-07-09T21:09:58.662Z,97.36
2023-07-09T21:12:32.220Z,97.34
2023-07-09T21:15:03.617Z,97.38
2023-07-09T21:17:33.943Z,97.42
2023-07-09T21:20:03.881Z,97.66
2023-07-09T21:22:34.656Z,97.79
2023-07-09T21:25:27.075Z,97.88
2023-07-09T21:27:57.343Z,97.97
2023-07-09T21:30:28.567Z,98.30
2023-07-09T21:33:01.066Z,98.41
2023-07-09T21:35:31.543Z,98.49
2023-07-09T21:38:03.006Z,98.68
2023-07-09T21:40:38.229Z,99.01
2023-07-09T21:43:08.798Z,98.82
2023-07-09T21:45:42.266Z,98.62
2023-07-09T21:48:24.105Z,98.57
2023-07-09T21:50:55.123Z,98.58
2023-07-09T21:56:03.303Z,98.86
2023-07-09T21:58:33.678Z,98.71
2023-07-09T22:01:03.593Z,98.75
2023-07-09T22:03:34.770Z,98.67
2023-07-09T22:06:07.641Z,98.60
2023-07-09T22:08:38.396Z,98.85
2023-07-09T22:11:30.864Z,99.04
2023-07-09T22:14:01.004Z,99.22
2023-07-09T22:16:31.323Z,99.59
2023-07-09T22:19:01.715Z,99.74
2023-07-09T22:21:33.913Z,99.86
2023-07-09T22:24:06.067Z,99.99
2023-07-09T22:26:37.231Z,99.99
2023-07-09T22:29:07.541Z,99.99
2023-07-09T22:31:39.289Z,99.99
2023-07-09T22:34:19.854Z,99.99
2023-07-09T22:36:50.843Z,99.99
2023-07-09T22:39:21.596Z,99.99
2023-07-09T22:41:52.337Z,99.99
2023-07-09T22:44:22.510Z,99.99
2023-07-09T22:46:52.802Z,99.99
2023-07-09T22:49:27.570Z,99.99
2023-07-09T22:51:59.189Z,99.99
2023-07-09T22:54:29.074Z,99.99
2023-07-09T22:56:59.127Z,99.99
2023-07-09T22:59:29.227Z,99.99
2023-07-09T23:02:00.031Z,99.99
2023-07-09T23:04:30.410Z,99.99
2023-07-09T23:07:00.176Z,99.99
2023-07-09T23:09:30.033Z,99.99
2023-07-09T23:12:02.589Z,99.99
2023-07-09T23:14:33.887Z,99.99
2023-07-09T23:17:04.214Z,99.99
2023-07-09T23:19:34.006Z,99.99
2023-07-09T23:22:05.547Z,99.99
2023-07-09T23:24:35.649Z,99.99
2023-07-09T23:27:06.195Z,99.99
2023-07-09T23:29:36.365Z,99.99
2023-07-09T23:32:06.958Z,99.99
2023-07-09T23:34:38.228Z,99.99
2023-07-09T23:37:08.612Z,99.99
2023-07-09T23:39:39.682Z,99.99
2023-07-09T23:42:15.465Z,99.99
2023-07-09T23:44:47.397Z,99.99
2023-07-09T23:47:19.099Z,99.99
2023-07-09T23:49:49.701Z,99.99
2023-07-09T23:52:19.949Z,99.99
2023-07-09T23:54:50.055Z,99.99
2023-07-09T23:57:20.156Z,99.99
2023-07-09T23:59:52.347Z,99.99
